sensor_id;sensor_type;location;lat;lon;timestamp;P1;durP1;ratioP1;P2;durP2;ratioP2
68744;SDS011;65497;45.454;11.064;2022-12-07T00:01:25;18.50;;;11.90;;
68744;SDS011;65497;45.454;11.064;2022-12-07T00:04:02;18.10;;;10.80;;
68744;SDS011;65497;45.454;11.064;2022-12-07T00:06:37;17.60;;;9.90;;
68744;SDS011;65497;45.454;11.064;2022-12-07T00:09:14;17.50;;;10.40;;
68744;SDS011;65497;45.454;11.064;2022-12-07T00:11:50;17.70;;;10.70;;
68744;SDS011;65497;45.454;11.064;2022-12-07T00:14:23;17.20;;;9.50;;
68744;SDS011;65497;45.454;11.064;2022-12-07T00:16:56;14.70;;;9.50;;
68744;SDS011;65497;45.454;11.064;2022-12-07T00:19:29;17.70;;;11.00;;
68744;SDS011;65497;45.454;11.064;2022-12-07T00:22:03;17.50;;;10.70;;
68744;SDS011;65497;45.454;11.064;2022-12-07T00:24:36;15.20;;;10.40;;
68744;SDS011;65497;45.454;11.064;2022-12-07T00:27:09;14.00;;;9.60;;
68744;SDS011;65497;45.454;11.064;2022-12-07T00:29:42;15.10;;;9.30;;
68744;SDS011;65497;45.454;11.064;2022-12-07T00:32:15;11.10;;;7.90;;
68744;SDS011;65497;45.454;11.064;2022-12-07T00:34:49;9.20;;;7.20;;
68744;SDS011;65497;45.454;11.064;2022-12-07T00:37:22;9.50;;;6.80;;
68744;SDS011;65497;45.454;11.064;2022-12-07T00:39:55;11.10;;;6.30;;
68744;SDS011;65497;45.454;11.064;2022-12-07T00:42:29;7.40;;;5.60;;
68744;SDS011;65497;45.454;11.064;2022-12-07T00:45:02;8.00;;;6.00;;
68744;SDS011;65497;45.454;11.064;2022-12-07T00:47:36;5.20;;;3.70;;
68744;SDS011;65497;45.454;11.064;2022-12-07T00:50:10;12.70;;;9.30;;
68744;SDS011;65497;45.454;11.064;2022-12-07T00:52:43;15.90;;;10.20;;
68744;SDS011;65497;45.454;11.064;2022-12-07T00:55:16;13.20;;;9.10;;
68744;SDS011;65497;45.454;11.064;2022-12-07T00:57:49;12.40;;;8.40;;
68744;SDS011;65497;45.454;11.064;2022-12-07T01:00:21;10.20;;;7.20;;
68744;SDS011;65497;45.454;11.064;2022-12-07T01:02:55;12.00;;;8.30;;
68744;SDS011;65497;45.454;11.064;2022-12-07T01:05:28;14.80;;;9.20;;
68744;SDS011;65497;45.454;11.064;2022-12-07T01:08:01;13.80;;;9.70;;
68744;SDS011;65497;45.454;11.064;2022-12-07T01:10:34;18.00;;;11.20;;
68744;SDS011;65497;45.454;11.064;2022-12-07T01:13:08;14.90;;;10.50;;
68744;SDS011;65497;45.454;11.064;2022-12-07T01:15:42;16.70;;;10.30;;
68744;SDS011;65497;45.454;11.064;2022-12-07T01:18:15;15.60;;;10.00;;
68744;SDS011;65497;45.454;11.064;2022-12-07T01:20:58;14.30;;;9.80;;
68744;SDS011;65497;45.454;11.064;2022-12-07T01:23:35;15.50;;;10.00;;
68744;SDS011;65497;45.454;11.064;2022-12-07T01:26:11;13.00;;;8.80;;
68744;SDS011;65497;45.454;11.064;2022-12-07T01:28:46;14.40;;;9.50;;
68744;SDS011;65497;45.454;11.064;2022-12-07T01:31:20;18.00;;;11.50;;
68744;SDS011;65497;45.454;11.064;2022-12-07T01:33:56;17.50;;;10.90;;
68744;SDS011;65497;45.454;11.064;2022-12-07T01:36:32;16.10;;;10.00;;
68744;SDS011;65497;45.454;11.064;2022-12-07T01:39:07;15.30;;;9.60;;
68744;SDS011;65497;45.454;11.064;2022-12-07T01:41:42;15.20;;;9.90;;
68744;SDS011;65497;45.454;11.064;2022-12-07T01:44:18;13.10;;;8.20;;
68744;SDS011;65497;45.454;11.064;2022-12-07T01:46:54;14.10;;;8.80;;
68744;SDS011;65497;45.454;11.064;2022-12-07T01:49:31;16.50;;;10.70;;
68744;SDS011;65497;45.454;11.064;2022-12-07T01:52:13;16.00;;;9.70;;
68744;SDS011;65497;45.454;11.064;2022-12-07T01:54:51;14.20;;;9.00;;
68744;SDS011;65497;45.454;11.064;2022-12-07T01:57:29;13.70;;;8.80;;
68744;SDS011;65497;45.454;11.064;2022-12-07T02:00:07;15.10;;;8.90;;
68744;SDS011;65497;45.454;11.064;2022-12-07T02:02:46;16.40;;;9.80;;
68744;SDS011;65497;45.454;11.064;2022-12-07T02:05:23;14.20;;;8.50;;
68744;SDS011;65497;45.454;11.064;2022-12-07T02:07:58;16.40;;;10.40;;
68744;SDS011;65497;45.454;11.064;2022-12-07T02:10:33;15.40;;;9.80;;
68744;SDS011;65497;45.454;11.064;2022-12-07T02:13:08;14.80;;;8.50;;
68744;SDS011;65497;45.454;11.064;2022-12-07T02:15:59;12.10;;;7.40;;
68744;SDS011;65497;45.454;11.064;2022-12-07T02:18:49;14.80;;;8.40;;
68744;SDS011;65497;45.454;11.064;2022-12-07T02:21:37;10.70;;;7.20;;
68744;SDS011;65497;45.454;11.064;2022-12-07T02:24:24;13.90;;;7.80;;
68744;SDS011;65497;45.454;11.064;2022-12-07T02:27:20;12.30;;;8.00;;
68744;SDS011;65497;45.454;11.064;2022-12-07T02:43:39;12.10;;;8.40;;
68744;SDS011;65497;45.454;11.064;2022-12-07T02:46:20;12.00;;;7.50;;
68744;SDS011;65497;45.454;11.064;2022-12-07T02:48:56;15.00;;;9.50;;
68744;SDS011;65497;45.454;11.064;2022-12-07T02:51:33;14.90;;;9.20;;
68744;SDS011;65497;45.454;11.064;2022-12-07T02:54:13;12.60;;;8.30;;
68744;SDS011;65497;45.454;11.064;2022-12-07T02:56:50;11.90;;;7.90;;
68744;SDS011;65497;45.454;11.064;2022-12-07T02:59:37;11.10;;;7.60;;
68744;SDS011;65497;45.454;11.064;2022-12-07T03:02:26;11.60;;;7.50;;
68744;SDS011;65497;45.454;11.064;2022-12-07T03:05:15;12.20;;;8.20;;
68744;SDS011;65497;45.454;11.064;2022-12-07T03:08:04;11.00;;;7.80;;
68744;SDS011;65497;45.454;11.064;2022-12-07T03:10:53;13.10;;;8.90;;
68744;SDS011;65497;45.454;11.064;2022-12-07T03:13:31;11.20;;;8.00;;
68744;SDS011;65497;45.454;11.064;2022-12-07T03:16:14;12.30;;;7.50;;
68744;SDS011;65497;45.454;11.064;2022-12-07T03:18:54;9.60;;;7.20;;
68744;SDS011;65497;45.454;11.064;2022-12-07T03:21:33;9.30;;;6.70;;
68744;SDS011;65497;45.454;11.064;2022-12-07T03:24:12;11.00;;;7.40;;
68744;SDS011;65497;45.454;11.064;2022-12-07T03:26:50;8.40;;;6.10;;
68744;SDS011;65497;45.454;11.064;2022-12-07T03:29:29;8.20;;;5.40;;
68744;SDS011;65497;45.454;11.064;2022-12-07T03:32:08;12.30;;;8.00;;
68744;SDS011;65497;45.454;11.064;2022-12-07T03:34:48;10.90;;;7.80;;
68744;SDS011;65497;45.454;11.064;2022-12-07T03:37:29;9.90;;;7.00;;
68744;SDS011;65497;45.454;11.064;2022-12-07T03:40:11;7.70;;;5.70;;
68744;SDS011;65497;45.454;11.064;2022-12-07T03:42:48;9.70;;;7.10;;
68744;SDS011;65497;45.454;11.064;2022-12-07T03:45:25;7.60;;;5.20;;
68744;SDS011;65497;45.454;11.064;2022-12-07T03:48:05;9.50;;;6.40;;
68744;SDS011;65497;45.454;11.064;2022-12-07T03:50:50;11.70;;;8.50;;
68744;SDS011;65497;45.454;11.064;2022-12-07T03:53:33;11.60;;;8.50;;
68744;SDS011;65497;45.454;11.064;2022-12-07T03:56:10;11.60;;;7.80;;
68744;SDS011;65497;45.454;11.064;2022-12-07T03:58:45;9.90;;;6.80;;
68744;SDS011;65497;45.454;11.064;2022-12-07T04:01:20;9.30;;;6.70;;
68744;SDS011;65497;45.454;11.064;2022-12-07T04:03:53;8.30;;;5.90;;
68744;SDS011;65497;45.454;11.064;2022-12-07T04:06:25;8.50;;;6.00;;
68744;SDS011;65497;45.454;11.064;2022-12-07T04:08:58;9.20;;;6.60;;
68744;SDS011;65497;45.454;11.064;2022-12-07T04:11:31;11.50;;;8.30;;
68744;SDS011;65497;45.454;11.064;2022-12-07T04:14:03;11.80;;;7.40;;
68744;SDS011;65497;45.454;11.064;2022-12-07T04:16:54;9.30;;;6.20;;
68744;SDS011;65497;45.454;11.064;2022-12-07T04:19:30;9.60;;;6.80;;
68744;SDS011;65497;45.454;11.064;2022-12-07T04:22:05;10.20;;;7.20;;
68744;SDS011;65497;45.454;11.064;2022-12-07T04:24:38;12.90;;;7.10;;
68744;SDS011;65497;45.454;11.064;2022-12-07T04:27:11;8.80;;;6.30;;
68744;SDS011;65497;45.454;11.064;2022-12-07T04:29:44;9.00;;;6.40;;
68744;SDS011;65497;45.454;11.064;2022-12-07T04:32:18;11.50;;;7.70;;
68744;SDS011;65497;45.454;11.064;2022-12-07T04:34:51;9.70;;;7.10;;
68744;SDS011;65497;45.454;11.064;2022-12-07T04:37:25;8.80;;;6.20;;
68744;SDS011;65497;45.454;11.064;2022-12-07T04:39:57;8.40;;;6.60;;
68744;SDS011;65497;45.454;11.064;2022-12-07T04:42:30;9.00;;;6.00;;
68744;SDS011;65497;45.454;11.064;2022-12-07T04:45:05;9.20;;;6.30;;
68744;SDS011;65497;45.454;11.064;2022-12-07T04:47:39;11.90;;;6.80;;
68744;SDS011;65497;45.454;11.064;2022-12-07T04:50:12;10.50;;;6.10;;
68744;SDS011;65497;45.454;11.064;2022-12-07T04:52:45;8.40;;;5.80;;
68744;SDS011;65497;45.454;11.064;2022-12-07T04:55:18;8.00;;;5.90;;
68744;SDS011;65497;45.454;11.064;2022-12-07T04:57:51;10.10;;;7.80;;
68744;SDS011;65497;45.454;11.064;2022-12-07T05:00:24;10.00;;;7.00;;
68744;SDS011;65497;45.454;11.064;2022-12-07T05:02:57;9.10;;;6.40;;
68744;SDS011;65497;45.454;11.064;2022-12-07T05:05:30;11.10;;;6.70;;
68744;SDS011;65497;45.454;11.064;2022-12-07T05:08:03;8.50;;;6.00;;
68744;SDS011;65497;45.454;11.064;2022-12-07T05:10:36;8.30;;;6.40;;
68744;SDS011;65497;45.454;11.064;2022-12-07T05:13:09;9.40;;;6.20;;
68744;SDS011;65497;45.454;11.064;2022-12-07T05:15:42;10.20;;;7.40;;
68744;SDS011;65497;45.454;11.064;2022-12-07T05:18:15;9.20;;;7.20;;
68744;SDS011;65497;45.454;11.064;2022-12-07T05:20:48;9.70;;;6.50;;
68744;SDS011;65497;45.454;11.064;2022-12-07T05:23:21;9.20;;;6.20;;
68744;SDS011;65497;45.454;11.064;2022-12-07T05:25:54;8.60;;;6.50;;
68744;SDS011;65497;45.454;11.064;2022-12-07T05:28:26;8.60;;;6.40;;
68744;SDS011;65497;45.454;11.064;2022-12-07T05:30:59;11.60;;;8.00;;
68744;SDS011;65497;45.454;11.064;2022-12-07T05:33:32;10.20;;;7.10;;
68744;SDS011;65497;45.454;11.064;2022-12-07T05:36:06;7.40;;;5.70;;
68744;SDS011;65497;45.454;11.064;2022-12-07T05:38:39;9.20;;;6.50;;
68744;SDS011;65497;45.454;11.064;2022-12-07T05:41:14;7.30;;;5.30;;
68744;SDS011;65497;45.454;11.064;2022-12-07T05:44:07;6.70;;;5.10;;
68744;SDS011;65497;45.454;11.064;2022-12-07T05:46:39;6.80;;;5.50;;
68744;SDS011;65497;45.454;11.064;2022-12-07T05:49:12;11.70;;;7.60;;
68744;SDS011;65497;45.454;11.064;2022-12-07T05:51:45;11.40;;;7.10;;
68744;SDS011;65497;45.454;11.064;2022-12-07T05:54:18;10.40;;;7.00;;
68744;SDS011;65497;45.454;11.064;2022-12-07T05:56:51;9.50;;;6.20;;
68744;SDS011;65497;45.454;11.064;2022-12-07T05:59:23;9.40;;;6.60;;
68744;SDS011;65497;45.454;11.064;2022-12-07T06:01:58;9.50;;;6.60;;
68744;SDS011;65497;45.454;11.064;2022-12-07T06:04:34;9.30;;;6.50;;
68744;SDS011;65497;45.454;11.064;2022-12-07T06:07:08;9.30;;;6.20;;
68744;SDS011;65497;45.454;11.064;2022-12-07T06:09:42;10.90;;;6.10;;
68744;SDS011;65497;45.454;11.064;2022-12-07T06:12:16;12.80;;;8.00;;
68744;SDS011;65497;45.454;11.064;2022-12-07T06:15:06;12.10;;;7.60;;
68744;SDS011;65497;45.454;11.064;2022-12-07T06:17:39;9.30;;;6.20;;
68744;SDS011;65497;45.454;11.064;2022-12-07T06:20:12;10.20;;;6.50;;
68744;SDS011;65497;45.454;11.064;2022-12-07T06:22:45;10.20;;;6.10;;
68744;SDS011;65497;45.454;11.064;2022-12-07T06:25:18;10.50;;;6.50;;
68744;SDS011;65497;45.454;11.064;2022-12-07T06:27:51;8.30;;;5.90;;
68744;SDS011;65497;45.454;11.064;2022-12-07T06:30:25;11.90;;;8.10;;
68744;SDS011;65497;45.454;11.064;2022-12-07T06:32:57;11.30;;;7.80;;
68744;SDS011;65497;45.454;11.064;2022-12-07T06:35:30;9.60;;;6.30;;
68744;SDS011;65497;45.454;11.064;2022-12-07T06:38:04;10.00;;;6.50;;
68744;SDS011;65497;45.454;11.064;2022-12-07T06:40:37;8.40;;;6.20;;
68744;SDS011;65497;45.454;11.064;2022-12-07T06:43:09;8.40;;;6.50;;
68744;SDS011;65497;45.454;11.064;2022-12-07T06:45:43;7.50;;;5.90;;
68744;SDS011;65497;45.454;11.064;2022-12-07T06:48:15;9.80;;;6.40;;
68744;SDS011;65497;45.454;11.064;2022-12-07T06:50:49;15.30;;;9.70;;
68744;SDS011;65497;45.454;11.064;2022-12-07T06:53:23;13.40;;;7.90;;
68744;SDS011;65497;45.454;11.064;2022-12-07T06:55:56;12.90;;;7.70;;
68744;SDS011;65497;45.454;11.064;2022-12-07T06:58:29;12.10;;;7.00;;
68744;SDS011;65497;45.454;11.064;2022-12-07T07:01:01;8.60;;;6.30;;
68744;SDS011;65497;45.454;11.064;2022-12-07T07:03:38;9.60;;;6.70;;
68744;SDS011;65497;45.454;11.064;2022-12-07T07:06:12;12.10;;;6.70;;
68744;SDS011;65497;45.454;11.064;2022-12-07T07:08:46;9.40;;;7.10;;
68744;SDS011;65497;45.454;11.064;2022-12-07T07:11:19;7.20;;;5.50;;
68744;SDS011;65497;45.454;11.064;2022-12-07T07:13:52;7.70;;;5.90;;
68744;SDS011;65497;45.454;11.064;2022-12-07T07:16:26;13.20;;;8.60;;
68744;SDS011;65497;45.454;11.064;2022-12-07T07:19:00;11.10;;;7.40;;
68744;SDS011;65497;45.454;11.064;2022-12-07T07:21:33;9.40;;;7.30;;
68744;SDS011;65497;45.454;11.064;2022-12-07T07:24:08;8.80;;;6.50;;
68744;SDS011;65497;45.454;11.064;2022-12-07T07:26:41;8.60;;;6.00;;
68744;SDS011;65497;45.454;11.064;2022-12-07T07:29:14;9.20;;;6.90;;
68744;SDS011;65497;45.454;11.064;2022-12-07T07:31:47;11.20;;;6.50;;
68744;SDS011;65497;45.454;11.064;2022-12-07T07:34:20;11.30;;;7.10;;
68744;SDS011;65497;45.454;11.064;2022-12-07T07:36:53;13.50;;;8.60;;
68744;SDS011;65497;45.454;11.064;2022-12-07T07:39:25;13.00;;;8.10;;
68744;SDS011;65497;45.454;11.064;2022-12-07T07:41:59;10.90;;;7.60;;
68744;SDS011;65497;45.454;11.064;2022-12-07T07:44:34;10.00;;;7.20;;
68744;SDS011;65497;45.454;11.064;2022-12-07T07:47:07;9.50;;;7.40;;
68744;SDS011;65497;45.454;11.064;2022-12-07T07:49:40;9.50;;;6.70;;
68744;SDS011;65497;45.454;11.064;2022-12-07T07:52:16;8.40;;;6.70;;
68744;SDS011;65497;45.454;11.064;2022-12-07T07:54:49;8.90;;;6.20;;
68744;SDS011;65497;45.454;11.064;2022-12-07T07:57:21;8.50;;;5.70;;
68744;SDS011;65497;45.454;11.064;2022-12-07T07:59:54;8.00;;;5.50;;
68744;SDS011;65497;45.454;11.064;2022-12-07T08:02:28;8.10;;;5.60;;
68744;SDS011;65497;45.454;11.064;2022-12-07T08:05:01;10.40;;;6.70;;
68744;SDS011;65497;45.454;11.064;2022-12-07T08:07:34;8.10;;;6.20;;
68744;SDS011;65497;45.454;11.064;2022-12-07T08:10:08;6.90;;;5.20;;
68744;SDS011;65497;45.454;11.064;2022-12-07T08:12:43;7.50;;;5.20;;
68744;SDS011;65497;45.454;11.064;2022-12-07T08:15:36;6.20;;;5.30;;
68744;SDS011;65497;45.454;11.064;2022-12-07T08:18:09;7.70;;;5.70;;
68744;SDS011;65497;45.454;11.064;2022-12-07T08:20:43;9.40;;;6.20;;
68744;SDS011;65497;45.454;11.064;2022-12-07T08:23:16;8.10;;;5.70;;
68744;SDS011;65497;45.454;11.064;2022-12-07T08:25:56;7.70;;;5.90;;
68744;SDS011;65497;45.454;11.064;2022-12-07T08:28:32;6.80;;;5.90;;
68744;SDS011;65497;45.454;11.064;2022-12-07T08:31:07;8.00;;;5.60;;
68744;SDS011;65497;45.454;11.064;2022-12-07T08:33:42;6.70;;;5.70;;
68744;SDS011;65497;45.454;11.064;2022-12-07T08:36:16;6.20;;;5.60;;
68744;SDS011;65497;45.454;11.064;2022-12-07T08:38:51;6.80;;;6.00;;
68744;SDS011;65497;45.454;11.064;2022-12-07T08:41:44;6.70;;;5.50;;
68744;SDS011;65497;45.454;11.064;2022-12-07T08:44:17;6.20;;;5.60;;
68744;SDS011;65497;45.454;11.064;2022-12-07T08:46:52;6.70;;;5.60;;
68744;SDS011;65497;45.454;11.064;2022-12-07T08:49:30;7.30;;;5.80;;
68744;SDS011;65497;45.454;11.064;2022-12-07T08:52:07;5.90;;;5.20;;
68744;SDS011;65497;45.454;11.064;2022-12-07T08:54:41;8.10;;;6.30;;
68744;SDS011;65497;45.454;11.064;2022-12-07T08:57:14;7.10;;;5.70;;
68744;SDS011;65497;45.454;11.064;2022-12-07T08:59:47;7.50;;;6.50;;
68744;SDS011;65497;45.454;11.064;2022-12-07T09:02:20;6.90;;;6.20;;
68744;SDS011;65497;45.454;11.064;2022-12-07T09:04:52;7.00;;;6.30;;
68744;SDS011;65497;45.454;11.064;2022-12-07T09:07:25;8.10;;;6.40;;
68744;SDS011;65497;45.454;11.064;2022-12-07T09:10:02;8.60;;;7.20;;
68744;SDS011;65497;45.454;11.064;2022-12-07T09:12:36;9.30;;;7.50;;
68744;SDS011;65497;45.454;11.064;2022-12-07T09:15:09;10.40;;;8.00;;
68744;SDS011;65497;45.454;11.064;2022-12-07T09:17:42;11.40;;;8.10;;
68744;SDS011;65497;45.454;11.064;2022-12-07T09:20:15;11.10;;;8.60;;
68744;SDS011;65497;45.454;11.064;2022-12-07T09:22:56;17.90;;;13.00;;
68744;SDS011;65497;45.454;11.064;2022-12-07T09:25:28;23.00;;;13.80;;
68744;SDS011;65497;45.454;11.064;2022-12-07T09:28:01;23.20;;;15.90;;
68744;SDS011;65497;45.454;11.064;2022-12-07T09:30:34;30.00;;;17.10;;
68744;SDS011;65497;45.454;11.064;2022-12-07T09:33:27;22.80;;;14.70;;
68744;SDS011;65497;45.454;11.064;2022-12-07T09:36:00;20.00;;;13.50;;
68744;SDS011;65497;45.454;11.064;2022-12-07T09:38:34;21.00;;;12.60;;
68744;SDS011;65497;45.454;11.064;2022-12-07T09:41:08;14.40;;;10.80;;
68744;SDS011;65497;45.454;11.064;2022-12-07T09:43:41;15.50;;;10.20;;
68744;SDS011;65497;45.454;11.064;2022-12-07T09:46:17;16.80;;;10.30;;
68744;SDS011;65497;45.454;11.064;2022-12-07T09:48:52;18.10;;;12.60;;
68744;SDS011;65497;45.454;11.064;2022-12-07T09:51:25;17.10;;;11.30;;
68744;SDS011;65497;45.454;11.064;2022-12-07T09:53:59;16.10;;;10.60;;
68744;SDS011;65497;45.454;11.064;2022-12-07T09:56:33;15.30;;;11.40;;
68744;SDS011;65497;45.454;11.064;2022-12-07T09:59:06;17.40;;;10.90;;
68744;SDS011;65497;45.454;11.064;2022-12-07T10:01:45;15.60;;;10.70;;
68744;SDS011;65497;45.454;11.064;2022-12-07T10:04:21;14.10;;;10.40;;
68744;SDS011;65497;45.454;11.064;2022-12-07T10:06:55;15.20;;;10.50;;
68744;SDS011;65497;45.454;11.064;2022-12-07T10:09:28;15.10;;;10.20;;
68744;SDS011;65497;45.454;11.064;2022-12-07T10:12:07;11.80;;;8.60;;
68744;SDS011;65497;45.454;11.064;2022-12-07T10:14:55;13.30;;;10.40;;
68744;SDS011;65497;45.454;11.064;2022-12-07T10:17:41;14.70;;;10.80;;
68744;SDS011;65497;45.454;11.064;2022-12-07T10:20:26;16.30;;;11.40;;
68744;SDS011;65497;45.454;11.064;2022-12-07T10:23:02;16.50;;;11.30;;
68744;SDS011;65497;45.454;11.064;2022-12-07T10:25:38;14.60;;;11.40;;
68744;SDS011;65497;45.454;11.064;2022-12-07T10:28:16;13.60;;;10.40;;
68744;SDS011;65497;45.454;11.064;2022-12-07T10:30:51;13.70;;;11.70;;
68744;SDS011;65497;45.454;11.064;2022-12-07T10:33:36;15.00;;;10.90;;
68744;SDS011;65497;45.454;11.064;2022-12-07T10:36:21;15.20;;;11.50;;
68744;SDS011;65497;45.454;11.064;2022-12-07T10:39:02;16.50;;;12.00;;
68744;SDS011;65497;45.454;11.064;2022-12-07T10:41:55;17.20;;;12.00;;
68744;SDS011;65497;45.454;11.064;2022-12-07T10:44:30;14.90;;;11.30;;
68744;SDS011;65497;45.454;11.064;2022-12-07T10:53:42;14.80;;;12.10;;
68744;SDS011;65497;45.454;11.064;2022-12-07T10:56:49;15.00;;;11.70;;
68744;SDS011;65497;45.454;11.064;2022-12-07T10:59:47;17.20;;;12.10;;
68744;SDS011;65497;45.454;11.064;2022-12-07T11:02:44;16.90;;;12.30;;
68744;SDS011;65497;45.454;11.064;2022-12-07T11:05:42;16.90;;;12.20;;
68744;SDS011;65497;45.454;11.064;2022-12-07T11:08:27;17.00;;;12.40;;
68744;SDS011;65497;45.454;11.064;2022-12-07T11:11:16;16.30;;;9.70;;
68744;SDS011;65497;45.454;11.064;2022-12-07T11:13:59;15.20;;;12.40;;
68744;SDS011;65497;45.454;11.064;2022-12-07T11:16:55;16.30;;;12.30;;
68744;SDS011;65497;45.454;11.064;2022-12-07T11:19:50;16.30;;;11.80;;
68744;SDS011;65497;45.454;11.064;2022-12-07T11:22:39;16.00;;;12.00;;
68744;SDS011;65497;45.454;11.064;2022-12-07T11:25:20;17.00;;;12.90;;
68744;SDS011;65497;45.454;11.064;2022-12-07T11:28:10;15.90;;;11.90;;
68744;SDS011;65497;45.454;11.064;2022-12-07T11:31:01;16.20;;;12.10;;
68744;SDS011;65497;45.454;11.064;2022-12-07T11:33:43;12.90;;;11.20;;
68744;SDS011;65497;45.454;11.064;2022-12-07T11:36:35;15.20;;;12.90;;
68744;SDS011;65497;45.454;11.064;2022-12-07T11:39:20;20.60;;;12.40;;
68744;SDS011;65497;45.454;11.064;2022-12-07T11:42:03;16.20;;;12.90;;
68744;SDS011;65497;45.454;11.064;2022-12-07T11:44:49;14.30;;;11.60;;
68744;SDS011;65497;45.454;11.064;2022-12-07T11:47:30;16.00;;;11.90;;
68744;SDS011;65497;45.454;11.064;2022-12-07T11:50:23;15.80;;;11.60;;
68744;SDS011;65497;45.454;11.064;2022-12-07T11:53:00;15.50;;;10.30;;
68744;SDS011;65497;45.454;11.064;2022-12-07T11:55:43;15.70;;;12.00;;
68744;SDS011;65497;45.454;11.064;2022-12-07T11:58:38;16.60;;;12.40;;
68744;SDS011;65497;45.454;11.064;2022-12-07T12:01:29;14.90;;;12.40;;
68744;SDS011;65497;45.454;11.064;2022-12-07T12:04:22;19.10;;;13.10;;
68744;SDS011;65497;45.454;11.064;2022-12-07T12:07:02;17.00;;;13.60;;
68744;SDS011;65497;45.454;11.064;2022-12-07T12:09:59;16.90;;;11.80;;
68744;SDS011;65497;45.454;11.064;2022-12-07T12:12:56;16.40;;;12.10;;
68744;SDS011;65497;45.454;11.064;2022-12-07T12:16:13;14.70;;;12.70;;
68744;SDS011;65497;45.454;11.064;2022-12-07T12:19:21;17.30;;;12.00;;
68744;SDS011;65497;45.454;11.064;2022-12-07T12:22:06;15.30;;;11.70;;
68744;SDS011;65497;45.454;11.064;2022-12-07T12:24:45;16.30;;;11.60;;
68744;SDS011;65497;45.454;11.064;2022-12-07T12:27:25;14.40;;;11.80;;
68744;SDS011;65497;45.454;11.064;2022-12-07T12:30:04;13.70;;;10.80;;
68744;SDS011;65497;45.454;11.064;2022-12-07T12:33:03;13.80;;;11.70;;
68744;SDS011;65497;45.454;11.064;2022-12-07T12:35:38;12.50;;;10.90;;
68744;SDS011;65497;45.454;11.064;2022-12-07T12:38:27;13.60;;;11.40;;
68744;SDS011;65497;45.454;11.064;2022-12-07T12:41:04;13.30;;;10.30;;
68744;SDS011;65497;45.454;11.064;2022-12-07T12:43:51;13.10;;;11.00;;
68744;SDS011;65497;45.454;11.064;2022-12-07T12:46:51;13.60;;;10.90;;
68744;SDS011;65497;45.454;11.064;2022-12-07T12:49:54;12.70;;;10.90;;
68744;SDS011;65497;45.454;11.064;2022-12-07T12:56:20;14.30;;;10.80;;
68744;SDS011;65497;45.454;11.064;2022-12-07T12:59:24;16.40;;;10.90;;
68744;SDS011;65497;45.454;11.064;2022-12-07T13:02:14;12.20;;;10.10;;
68744;SDS011;65497;45.454;11.064;2022-12-07T13:04:55;13.00;;;10.80;;
68744;SDS011;65497;45.454;11.064;2022-12-07T13:07:52;13.00;;;10.10;;
68744;SDS011;65497;45.454;11.064;2022-12-07T13:10:44;13.30;;;10.20;;
68744;SDS011;65497;45.454;11.064;2022-12-07T13:13:37;13.00;;;10.90;;
68744;SDS011;65497;45.454;11.064;2022-12-07T13:22:51;13.50;;;10.90;;
68744;SDS011;65497;45.454;11.064;2022-12-07T13:25:41;13.10;;;10.80;;
68744;SDS011;65497;45.454;11.064;2022-12-07T13:28:22;14.40;;;10.70;;
68744;SDS011;65497;45.454;11.064;2022-12-07T13:31:09;12.50;;;9.40;;
68744;SDS011;65497;45.454;11.064;2022-12-07T13:33:47;11.40;;;10.20;;
68744;SDS011;65497;45.454;11.064;2022-12-07T13:36:23;10.40;;;9.00;;
68744;SDS011;65497;45.454;11.064;2022-12-07T13:38:59;13.00;;;9.60;;
68744;SDS011;65497;45.454;11.064;2022-12-07T13:41:42;11.50;;;9.30;;
68744;SDS011;65497;45.454;11.064;2022-12-07T13:44:20;12.60;;;9.30;;
68744;SDS011;65497;45.454;11.064;2022-12-07T13:47:03;11.60;;;9.20;;
68744;SDS011;65497;45.454;11.064;2022-12-07T13:49:48;12.10;;;9.60;;
68744;SDS011;65497;45.454;11.064;2022-12-07T13:52:24;11.70;;;9.10;;
68744;SDS011;65497;45.454;11.064;2022-12-07T13:55:00;12.20;;;9.20;;
68744;SDS011;65497;45.454;11.064;2022-12-07T13:57:47;12.20;;;8.90;;
68744;SDS011;65497;45.454;11.064;2022-12-07T14:00:24;12.10;;;8.80;;
68744;SDS011;65497;45.454;11.064;2022-12-07T14:03:00;15.20;;;9.90;;
68744;SDS011;65497;45.454;11.064;2022-12-07T14:05:36;11.70;;;9.00;;
68744;SDS011;65497;45.454;11.064;2022-12-07T14:08:24;12.90;;;9.20;;
68744;SDS011;65497;45.454;11.064;2022-12-07T14:11:00;13.20;;;8.80;;
68744;SDS011;65497;45.454;11.064;2022-12-07T14:13:35;13.70;;;9.70;;
68744;SDS011;65497;45.454;11.064;2022-12-07T14:16:26;11.40;;;8.60;;
68744;SDS011;65497;45.454;11.064;2022-12-07T14:19:04;12.10;;;9.30;;
68744;SDS011;65497;45.454;11.064;2022-12-07T14:22:20;13.00;;;9.80;;
68744;SDS011;65497;45.454;11.064;2022-12-07T14:25:17;12.10;;;8.50;;
68744;SDS011;65497;45.454;11.064;2022-12-07T14:27:55;10.10;;;7.70;;
68744;SDS011;65497;45.454;11.064;2022-12-07T14:30:30;11.00;;;8.70;;
68744;SDS011;65497;45.454;11.064;2022-12-07T14:33:07;10.10;;;8.80;;
68744;SDS011;65497;45.454;11.064;2022-12-07T14:35:40;12.90;;;9.00;;
68744;SDS011;65497;45.454;11.064;2022-12-07T14:38:13;13.40;;;9.40;;
68744;SDS011;65497;45.454;11.064;2022-12-07T14:40:48;11.50;;;9.10;;
68744;SDS011;65497;45.454;11.064;2022-12-07T14:43:21;13.40;;;9.20;;
68744;SDS011;65497;45.454;11.064;2022-12-07T14:45:54;13.90;;;10.60;;
68744;SDS011;65497;45.454;11.064;2022-12-07T14:48:26;16.10;;;10.90;;
68744;SDS011;65497;45.454;11.064;2022-12-07T14:51:19;14.90;;;10.60;;
68744;SDS011;65497;45.454;11.064;2022-12-07T14:54:15;14.10;;;10.10;;
68744;SDS011;65497;45.454;11.064;2022-12-07T14:56:49;15.50;;;9.00;;
68744;SDS011;65497;45.454;11.064;2022-12-07T14:59:22;12.80;;;9.60;;
68744;SDS011;65497;45.454;11.064;2022-12-07T15:01:54;15.40;;;9.80;;
68744;SDS011;65497;45.454;11.064;2022-12-07T15:04:27;17.10;;;10.30;;
68744;SDS011;65497;45.454;11.064;2022-12-07T15:07:02;13.50;;;11.20;;
68744;SDS011;65497;45.454;11.064;2022-12-07T15:09:35;14.30;;;11.00;;
68744;SDS011;65497;45.454;11.064;2022-12-07T15:12:09;14.90;;;11.80;;
68744;SDS011;65497;45.454;11.064;2022-12-07T15:14:43;15.00;;;10.80;;
68744;SDS011;65497;45.454;11.064;2022-12-07T15:17:16;19.10;;;12.60;;
68744;SDS011;65497;45.454;11.064;2022-12-07T15:20:00;18.50;;;13.50;;
68744;SDS011;65497;45.454;11.064;2022-12-07T15:22:35;18.10;;;13.80;;
68744;SDS011;65497;45.454;11.064;2022-12-07T15:25:12;18.40;;;13.40;;
68744;SDS011;65497;45.454;11.064;2022-12-07T15:27:46;19.50;;;14.40;;
68744;SDS011;65497;45.454;11.064;2022-12-07T15:30:20;21.10;;;15.00;;
68744;SDS011;65497;45.454;11.064;2022-12-07T15:32:56;19.90;;;14.50;;
68744;SDS011;65497;45.454;11.064;2022-12-07T15:35:28;16.10;;;13.20;;
68744;SDS011;65497;45.454;11.064;2022-12-07T15:38:01;18.20;;;15.30;;
68744;SDS011;65497;45.454;11.064;2022-12-07T15:40:34;23.90;;;15.90;;
68744;SDS011;65497;45.454;11.064;2022-12-07T15:43:09;26.60;;;18.10;;
68744;SDS011;65497;45.454;11.064;2022-12-07T15:45:56;23.10;;;16.40;;
68744;SDS011;65497;45.454;11.064;2022-12-07T15:48:29;21.90;;;16.10;;
68744;SDS011;65497;45.454;11.064;2022-12-07T15:51:06;23.40;;;15.90;;
68744;SDS011;65497;45.454;11.064;2022-12-07T15:53:39;20.70;;;15.20;;
68744;SDS011;65497;45.454;11.064;2022-12-07T15:56:13;22.70;;;14.70;;